Eastern Asia — 3FQP2 — position and weather

sailwx.info

Track history (hours):
 
Tides and Currents Weather Stations Pressure Air Temp Water Temp Dewpoint Dewpoint Depression Visibility Wind Speed Wind Dir Waves Ship Positions

Eastern Asia

Last reported at 2017-Sep-19 21:55 UTC. Time now 2017-Sep-19 22:13 UTC.
Position N 46°06' W 122°57'.

Length 175 m; draft 9.1 m.

Type: Cargo ship. MMSI: 355530000.

Date/timePositionNaut miles runAvg speedWind from/ knotsBaromVisibWave heightAir tempDewpointWater temp
2017-Sep-19 21:55N 46°06' W 122°57'0 0.0
2017-Sep-19 21:28N 46°06' W 122°57'0 0.0
2017-Sep-19 20:55N 46°06' W 122°57'0 0.0
2017-Sep-19 20:28N 46°06' W 122°57'0 0.0
2017-Sep-19 19:49N 46°06' W 122°57'0 0.0
2017-Sep-19 19:28N 46°06' W 122°57'0 0.0
2017-Sep-19 18:52N 46°06' W 122°57'0 0.0
2017-Sep-19 18:28N 46°06' W 122°57'0 0.0
2017-Sep-19 17:58N 46°06' W 122°57'0 0.0
2017-Sep-19 17:28N 46°06' W 122°57'0 0.0
2017-Sep-19 16:58N 46°06' W 122°57'0 0.0
2017-Sep-19 16:25N 46°06' W 122°57'0 0.0
2017-Sep-19 15:58N 46°06' W 122°57'0 0.0
2017-Sep-19 15:28N 46°06' W 122°57'0 0.0
2017-Sep-19 14:58N 46°06' W 122°57'0 0.0
2017-Sep-19 14:28N 46°06' W 122°57'0 0.0
2017-Sep-19 13:58N 46°06' W 122°57'  
2017-Sep-14 08:22N 46°06' W 122°57'0 0.0
2017-Sep-14 07:52N 46°06' W 122°57'1 0.1
2017-Sep-13 20:09N 46°06' W 122°57'2 7.1
2017-Sep-13 19:55N 46°07' W 122°59'611.0
2017-Sep-13 19:23N 46°11' W 123°06'911.6
2017-Sep-13 18:36N 46°09' W 123°19'111.8
2017-Sep-13 18:29N 46°09' W 123°21'5 9.4
2017-Sep-13 18:00N 46°12' W 123°26'510.7
2017-Sep-13 17:31N 46°16' W 123°30'612.5
2017-Sep-13 17:01N 46°16' W 123°39'612.4
2017-Sep-13 16:31N 46°13' W 123°47'5 9.3
2017-Sep-13 16:01N 46°11' W 123°53'611.5
2017-Sep-13 15:30N 46°15' W 124°00'611.3
2017-Sep-13 15:01N 46°13' W 124°08'713.1
2017-Sep-13 14:30N 46°14' W 124°17'2 3.3
2017-Sep-13 14:00N 46°13' W 124°19'1 2.4
2017-Sep-13 13:30N 46°12' W 124°21'612.3
2017-Sep-13 13:00N 46°12' W 124°30'612.6
2017-Sep-13 12:30N 46°12' W 124°39'  
Track history (hours):
 
Tides and Currents Weather Stations Pressure Air Temp Water Temp Dewpoint Dewpoint Depression Visibility Wind Speed Wind Dir Waves Ship Positions

Eastern Asia

Last reported at 2017-Sep-19 21:55 UTC. Time now 2017-Sep-19 22:13 UTC.
Position N 46°06' W 122°57'.

Length 175 m; draft 9.1 m.

Type: Cargo ship. MMSI: 355530000.

Date/timePositionNaut miles runAvg speedWind from/ knotsBaromVisibWave heightAir tempDewpointWater temp
2017-Sep-19 21:55N 46°06' W 122°57'0 0.0
2017-Sep-19 21:28N 46°06' W 122°57'0 0.0
2017-Sep-19 20:55N 46°06' W 122°57'0 0.0
2017-Sep-19 20:28N 46°06' W 122°57'0 0.0
2017-Sep-19 19:49N 46°06' W 122°57'0 0.0
2017-Sep-19 19:28N 46°06' W 122°57'0 0.0
2017-Sep-19 18:52N 46°06' W 122°57'0 0.0
2017-Sep-19 18:28N 46°06' W 122°57'0 0.0
2017-Sep-19 17:58N 46°06' W 122°57'0 0.0
2017-Sep-19 17:28N 46°06' W 122°57'0 0.0
2017-Sep-19 16:58N 46°06' W 122°57'0 0.0
2017-Sep-19 16:25N 46°06' W 122°57'0 0.0
2017-Sep-19 15:58N 46°06' W 122°57'0 0.0
2017-Sep-19 15:28N 46°06' W 122°57'0 0.0
2017-Sep-19 14:58N 46°06' W 122°57'0 0.0
2017-Sep-19 14:28N 46°06' W 122°57'0 0.0
2017-Sep-19 13:58N 46°06' W 122°57'  
2017-Sep-14 08:22N 46°06' W 122°57'0 0.0
2017-Sep-14 07:52N 46°06' W 122°57'1 0.1
2017-Sep-13 20:09N 46°06' W 122°57'2 7.1
2017-Sep-13 19:55N 46°07' W 122°59'611.0
2017-Sep-13 19:23N 46°11' W 123°06'911.6
2017-Sep-13 18:36N 46°09' W 123°19'111.8
2017-Sep-13 18:29N 46°09' W 123°21'5 9.4
2017-Sep-13 18:00N 46°12' W 123°26'510.7
2017-Sep-13 17:31N 46°16' W 123°30'612.5
2017-Sep-13 17:01N 46°16' W 123°39'612.4
2017-Sep-13 16:31N 46°13' W 123°47'5 9.3
2017-Sep-13 16:01N 46°11' W 123°53'611.5
2017-Sep-13 15:30N 46°15' W 124°00'611.3
2017-Sep-13 15:01N 46°13' W 124°08'713.1
2017-Sep-13 14:30N 46°14' W 124°17'2 3.3
2017-Sep-13 14:00N 46°13' W 124°19'1 2.4
2017-Sep-13 13:30N 46°12' W 124°21'612.3
2017-Sep-13 13:00N 46°12' W 124°30'612.6
2017-Sep-13 12:30N 46°12' W 124°39'  

Dump ship's entire track history